createdAt,value
2024-01-11T00:00:03.553Z,27.41
2024-01-11T00:01:03.539Z,27.29
2024-01-11T00:02:03.525Z,27.34
2024-01-11T00:03:03.502Z,27.07
2024-01-11T00:04:03.470Z,27.09
2024-01-11T00:05:03.587Z,27.41
2024-01-11T00:06:03.625Z,27.18
2024-01-11T00:07:03.459Z,27.18
2024-01-11T00:08:03.452Z,27.18
2024-01-11T00:09:03.383Z,27.17
2024-01-11T00:10:03.368Z,27.36
2024-01-11T00:11:03.369Z,27.15
2024-01-11T00:12:03.338Z,26.99
2024-01-11T00:13:03.312Z,27.31
2024-01-11T00:14:03.356Z,27.31
2024-01-11T00:15:03.317Z,27.31
2024-01-11T00:16:03.276Z,27.32
2024-01-11T00:17:03.272Z,27.13
2024-01-11T00:18:03.396Z,27.42
2024-01-11T00:19:03.350Z,27.24
2024-01-11T00:20:03.249Z,27.02
2024-01-11T00:21:03.184Z,27.16
2024-01-11T00:22:03.160Z,27.20
2024-01-11T00:23:03.220Z,27.25
2024-01-11T00:24:03.141Z,27.36
2024-01-11T00:25:03.118Z,27.25
2024-01-11T00:26:03.153Z,27.33
2024-01-11T00:27:03.085Z,27.20
2024-01-11T00:28:03.095Z,27.33
2024-01-11T00:29:03.097Z,27.25
2024-01-11T00:30:03.039Z,27.02
2024-01-11T00:31:03.059Z,27.33
2024-01-11T00:32:03.077Z,26.97
2024-01-11T00:33:03.141Z,27.21
2024-01-11T00:34:03.122Z,27.13
2024-01-11T00:35:03.035Z,27.10
2024-01-11T00:36:02.964Z,26.93
2024-01-11T00:37:02.942Z,27.10
2024-01-11T00:38:02.949Z,27.22
2024-01-11T00:39:02.904Z,27.17
2024-01-11T00:40:02.899Z,27.32
2024-01-11T00:41:02.920Z,26.90
2024-01-11T00:42:02.847Z,27.28
2024-01-11T00:43:02.839Z,27.14
2024-01-11T00:44:02.838Z,27.10
2024-01-11T00:45:02.806Z,27.35
2024-01-11T00:46:02.786Z,26.94
2024-01-11T00:47:02.838Z,27.28
2024-01-11T00:48:02.876Z,26.97
2024-01-11T00:49:02.874Z,26.99
2024-01-11T00:50:02.746Z,26.90
2024-01-11T00:51:02.697Z,27.10
2024-01-11T00:52:02.658Z,26.88
2024-01-11T00:53:02.798Z,27.16
2024-01-11T00:54:02.623Z,26.95
2024-01-11T00:55:02.607Z,27.18
2024-01-11T00:56:02.652Z,27.05
2024-01-11T00:57:02.564Z,27.04
2024-01-11T00:58:02.554Z,26.82
2024-01-11T00:59:02.600Z,27.21
2024-01-11T01:00:02.564Z,27.05
2024-01-11T01:01:02.550Z,27.14
2024-01-11T01:02:02.530Z,26.99
2024-01-11T01:03:02.516Z,27.15
2024-01-11T01:04:02.519Z,27.30
2024-01-11T01:05:02.579Z,27.18
2024-01-11T01:06:02.573Z,27.21
2024-01-11T01:07:02.410Z,26.94
2024-01-11T01:08:02.463Z,27.17
2024-01-11T01:09:02.380Z,27.19
2024-01-11T01:10:02.371Z,27.01
2024-01-11T01:11:02.418Z,27.02
2024-01-11T01:12:02.349Z,27.10
2024-01-11T01:13:02.369Z,27.15
2024-01-11T01:14:02.370Z,26.84
2024-01-11T01:15:02.302Z,27.06
2024-01-11T01:16:02.289Z,26.99
2024-01-11T01:17:02.287Z,27.02
2024-01-11T01:18:02.536Z,26.95
2024-01-11T01:19:02.288Z,27.12
2024-01-11T01:20:02.340Z,27.04
2024-01-11T01:21:02.193Z,27.01
2024-01-11T01:22:02.200Z,27.15
2024-01-11T01:23:02.213Z,26.92
2024-01-11T01:24:02.167Z,26.93
2024-01-11T01:25:02.158Z,27.34
2024-01-11T01:26:04.130Z,27.16
2024-01-11T01:27:02.109Z,27.02
2024-01-11T01:28:02.126Z,26.87
2024-01-11T01:29:02.090Z,27.16
2024-01-11T01:30:02.069Z,26.99
2024-01-11T01:31:02.064Z,26.91
2024-01-11T01:32:02.054Z,26.90
2024-01-11T01:33:02.199Z,27.02
2024-01-11T01:34:02.043Z,27.14
2024-01-11T01:35:02.001Z,26.84
2024-01-11T01:36:01.942Z,26.96
2024-01-11T01:37:01.915Z,26.68
2024-01-11T01:38:01.980Z,26.98
2024-01-11T01:39:01.879Z,26.92
2024-01-11T01:40:01.907Z,26.88
2024-01-11T01:41:01.933Z,27.03
2024-01-11T01:42:01.852Z,27.06
2024-01-11T01:43:01.819Z,26.99
2024-01-11T01:44:01.832Z,26.98
2024-01-11T01:45:01.784Z,26.91
2024-01-11T01:46:01.796Z,27.03
2024-01-11T01:47:01.801Z,26.87
2024-01-11T01:48:01.868Z,27.02
2024-01-11T01:49:01.779Z,26.72
2024-01-11T01:50:01.741Z,26.99
2024-01-11T01:51:01.697Z,26.83
2024-01-11T01:52:01.654Z,27.12
2024-01-11T01:53:01.650Z,26.91
2024-01-11T01:54:01.613Z,26.81
2024-01-11T01:55:01.605Z,26.68
2024-01-11T01:56:01.658Z,26.85
2024-01-11T01:57:01.606Z,26.88
2024-01-11T01:58:01.568Z,26.67
2024-01-11T01:59:01.577Z,27.01
2024-01-11T02:00:01.561Z,26.88
2024-01-11T02:01:01.551Z,27.10
2024-01-11T02:02:01.526Z,27.05
2024-01-11T02:03:01.533Z,26.99
2024-01-11T02:04:01.486Z,27.03
2024-01-11T02:05:01.557Z,27.00
2024-01-11T02:06:01.514Z,27.12
2024-01-11T02:07:01.437Z,27.00
2024-01-11T02:08:01.475Z,26.87
2024-01-11T02:09:01.423Z,26.85
2024-01-11T02:10:01.395Z,27.03
2024-01-11T02:11:01.422Z,26.87
2024-01-11T02:12:01.365Z,27.03
2024-01-11T02:13:01.366Z,26.85
2024-01-11T02:14:01.384Z,26.89
2024-01-11T02:15:01.328Z,26.73
2024-01-11T02:16:01.323Z,26.69
2024-01-11T02:17:01.320Z,26.81
2024-01-11T02:18:01.373Z,27.01
2024-01-11T02:19:01.363Z,26.88
2024-01-11T02:20:01.332Z,26.56
2024-01-11T02:21:01.281Z,26.93
2024-01-11T02:22:01.246Z,26.88
2024-01-11T02:23:01.292Z,26.85
2024-01-11T02:24:01.218Z,26.85
2024-01-11T02:25:01.223Z,26.93
2024-01-11T02:26:01.249Z,26.71
2024-01-11T02:27:01.203Z,26.82
2024-01-11T02:28:01.197Z,26.99
2024-01-11T02:29:01.278Z,27.19
2024-01-11T02:30:01.154Z,26.80
2024-01-11T02:31:01.211Z,26.64
2024-01-11T02:32:01.161Z,26.96
2024-01-11T02:33:01.233Z,26.90
2024-01-11T02:34:01.213Z,26.90
2024-01-11T02:35:01.149Z,26.84
2024-01-11T02:36:01.129Z,26.64
2024-01-11T02:37:01.058Z,26.74
2024-01-11T02:38:01.104Z,26.88
2024-01-11T02:39:01.043Z,26.74
2024-01-11T02:40:01.086Z,26.83
2024-01-11T02:41:01.049Z,27.01
2024-01-11T02:42:01.042Z,26.78
2024-01-11T02:43:01.009Z,26.69
2024-01-11T02:44:01.021Z,26.96
2024-01-11T02:45:00.977Z,26.78
2024-01-11T02:46:00.984Z,26.93
2024-01-11T02:47:00.973Z,26.44
2024-01-11T02:48:01.216Z,26.92
2024-01-11T02:49:01.034Z,27.08
2024-01-11T02:50:00.978Z,27.00
2024-01-11T02:51:00.890Z,26.81
2024-01-11T02:52:00.866Z,26.69
2024-01-11T02:53:01.087Z,26.75
2024-01-11T02:54:00.847Z,26.65
2024-01-11T02:55:00.843Z,26.90
2024-01-11T02:56:03.303Z,26.93
2024-01-11T02:57:00.801Z,26.95
2024-01-11T02:58:00.788Z,26.66
2024-01-11T02:59:00.785Z,26.86
2024-01-11T03:00:00.782Z,26.75
2024-01-11T03:01:00.751Z,26.87
2024-01-11T03:02:00.747Z,26.73
2024-01-11T03:03:00.764Z,26.55
2024-01-11T03:04:00.827Z,26.95
2024-01-11T03:05:00.698Z,26.82
2024-01-11T03:06:00.711Z,26.75
2024-01-11T03:07:00.653Z,26.69
2024-01-11T03:08:00.652Z,26.53
2024-01-11T03:09:00.654Z,26.83
2024-01-11T03:10:00.597Z,26.60
2024-01-11T03:11:00.601Z,26.79
2024-01-11T03:12:00.558Z,26.77
2024-01-11T03:13:00.548Z,26.73
2024-01-11T03:14:00.576Z,26.78
2024-01-11T03:15:00.563Z,26.61
2024-01-11T03:16:00.511Z,26.61
2024-01-11T03:17:00.540Z,26.81
2024-01-11T03:18:00.630Z,26.34
2024-01-11T03:20:00.489Z,26.79
2024-01-11T03:21:00.445Z,26.70
2024-01-11T03:22:00.415Z,26.73
2024-01-11T03:23:00.467Z,26.55
2024-01-11T03:24:00.398Z,26.55
2024-01-11T03:25:00.383Z,26.85
2024-01-11T03:26:00.418Z,26.76
2024-01-11T03:27:00.370Z,26.65
2024-01-11T03:28:00.365Z,26.47
2024-01-11T03:29:00.371Z,26.77
2024-01-11T03:30:00.373Z,26.70
2024-01-11T03:31:00.381Z,26.69
2024-01-11T03:32:00.404Z,26.58
2024-01-11T03:33:00.609Z,26.53
2024-01-11T03:34:00.462Z,26.78
2024-01-11T03:35:00.360Z,26.82
2024-01-11T03:36:00.273Z,26.70
2024-01-11T03:37:00.237Z,26.63
2024-01-11T03:38:00.313Z,26.49
2024-01-11T03:39:00.250Z,26.38
2024-01-11T03:40:00.257Z,26.82
2024-01-11T03:41:00.233Z,26.61
2024-01-11T03:42:00.177Z,26.70
2024-01-11T03:43:00.182Z,26.51
2024-01-11T03:44:00.290Z,26.77
2024-01-11T03:45:00.270Z,26.42
2024-01-11T03:46:00.254Z,26.73
2024-01-11T03:47:00.304Z,26.67
2024-01-11T03:48:00.287Z,26.46
2024-01-11T03:49:00.280Z,26.46
2024-01-11T03:50:00.312Z,26.78
2024-01-11T03:51:00.216Z,26.75
2024-01-11T03:52:00.172Z,26.87
2024-01-11T03:53:00.211Z,26.69
2024-01-11T03:54:00.215Z,26.70
2024-01-11T03:55:00.182Z,26.65
2024-01-11T03:56:00.175Z,26.74
2024-01-11T03:57:00.133Z,26.54
2024-01-11T03:58:00.112Z,26.70
2024-01-11T03:59:00.111Z,26.63
2024-01-11T04:00:00.127Z,26.70
2024-01-11T04:01:00.120Z,26.46
2024-01-11T04:02:00.172Z,26.53
2024-01-11T04:03:00.057Z,26.74
2024-01-11T04:04:00.152Z,26.46
2024-01-11T04:05:00.122Z,26.46
2024-01-11T04:06:00.081Z,26.78
2024-01-11T04:06:59.998Z,26.66
2024-01-11T04:08:00.074Z,26.61
2024-01-11T04:08:59.968Z,26.43
2024-01-11T04:09:59.964Z,26.50
2024-01-11T04:10:59.985Z,26.31
2024-01-11T04:11:59.945Z,26.35
2024-01-11T04:12:59.944Z,26.30
2024-01-11T04:13:59.984Z,26.26
2024-01-11T04:14:59.906Z,26.23
2024-01-11T04:15:59.890Z,26.61
2024-01-11T04:16:59.889Z,26.51
2024-01-11T04:17:59.943Z,26.75
2024-01-11T04:18:59.940Z,26.59
2024-01-11T04:19:59.843Z,26.45
2024-01-11T04:20:59.819Z,26.43
2024-01-11T04:21:59.783Z,26.46
2024-01-11T04:22:59.798Z,26.67
2024-01-11T04:23:59.759Z,26.54
2024-01-11T04:24:59.770Z,26.61
2024-01-11T04:25:59.743Z,26.59
2024-01-11T04:26:59.717Z,26.72
2024-01-11T04:27:59.681Z,26.35
2024-01-11T04:29:00.645Z,26.57
2024-01-11T04:29:59.642Z,26.58
2024-01-11T04:30:59.690Z,26.62
2024-01-11T04:31:59.698Z,26.62
2024-01-11T04:32:59.679Z,26.57
2024-01-11T04:33:59.675Z,26.14
2024-01-11T04:34:59.636Z,26.61
2024-01-11T04:35:59.573Z,26.77
2024-01-11T04:36:59.512Z,26.36
2024-01-11T04:37:59.568Z,26.79
2024-01-11T04:38:59.471Z,26.63
2024-01-11T04:39:59.459Z,26.24
2024-01-11T04:40:59.455Z,26.34
2024-01-11T04:42:11.587Z,26.44
2024-01-11T04:43:11.541Z,26.31
2024-01-11T04:44:11.567Z,26.25
2024-01-11T04:45:11.518Z,26.66
2024-01-11T04:46:11.533Z,26.35
2024-01-11T04:47:11.513Z,26.36
2024-01-11T04:48:11.542Z,26.72
2024-01-11T04:49:11.598Z,26.68
2024-01-11T04:50:11.473Z,26.51
2024-01-11T04:51:11.455Z,26.60
2024-01-11T04:52:11.427Z,26.47
2024-01-11T04:53:11.466Z,26.39
2024-01-11T04:54:11.432Z,26.45
2024-01-11T04:55:11.397Z,26.56
2024-01-11T04:56:11.420Z,26.36
2024-01-11T04:57:11.372Z,26.55
2024-01-11T04:58:11.381Z,26.48
2024-01-11T04:59:11.450Z,26.28
2024-01-11T05:00:11.370Z,26.59
2024-01-11T05:01:11.343Z,26.64
2024-01-11T05:02:11.322Z,26.63
2024-01-11T05:03:11.303Z,26.50
2024-01-11T05:04:11.301Z,26.68
2024-01-11T05:05:11.297Z,26.44
2024-01-11T05:06:11.259Z,26.44
2024-01-11T05:07:11.243Z,26.26
2024-01-11T05:08:11.223Z,26.58
2024-01-11T05:09:11.209Z,26.61
2024-01-11T05:10:11.178Z,26.23
2024-01-11T05:11:11.218Z,26.52
2024-01-11T05:12:11.147Z,26.56
2024-01-11T05:13:11.683Z,26.67
2024-01-11T05:14:11.167Z,26.57
2024-01-11T05:15:11.116Z,26.48
2024-01-11T05:16:11.093Z,26.66
2024-01-11T05:17:11.140Z,26.71
2024-01-11T05:18:11.209Z,26.58
2024-01-11T05:19:11.207Z,26.30
2024-01-11T05:20:11.190Z,26.58
2024-01-11T05:21:11.157Z,26.61
2024-01-11T05:22:11.159Z,26.51
2024-01-11T05:23:11.209Z,26.28
2024-01-11T05:24:12.342Z,26.24
2024-01-11T05:25:11.244Z,26.36
2024-01-11T05:26:11.318Z,26.74
2024-01-11T05:27:11.318Z,26.48
2024-01-11T05:28:11.339Z,26.32
2024-01-11T05:29:11.421Z,26.46
2024-01-11T05:30:11.478Z,26.57
2024-01-11T05:31:11.636Z,26.42
2024-01-11T05:32:11.748Z,26.57
2024-01-11T05:33:11.672Z,26.26
2024-01-11T05:34:11.597Z,26.55
2024-01-11T05:35:11.639Z,26.46
2024-01-11T05:36:11.590Z,26.49
2024-01-11T05:37:11.562Z,26.49
2024-01-11T05:38:11.552Z,26.49
2024-01-11T05:39:11.541Z,26.46
2024-01-11T05:40:11.497Z,26.38
2024-01-11T05:41:11.571Z,26.49
2024-01-11T05:42:11.471Z,26.62
2024-01-11T05:43:11.501Z,26.32
2024-01-11T05:44:11.468Z,26.54
2024-01-11T05:45:11.444Z,26.44
2024-01-11T05:46:11.423Z,26.29
2024-01-11T05:47:11.432Z,26.45
2024-01-11T05:48:11.429Z,26.57
2024-01-11T05:49:11.427Z,26.26
2024-01-11T05:50:11.471Z,26.30
2024-01-11T05:51:11.401Z,26.41
2024-01-11T05:52:11.380Z,26.42
2024-01-11T05:53:11.441Z,26.29
2024-01-11T05:54:11.380Z,26.28
2024-01-11T05:55:11.398Z,26.37
2024-01-11T05:56:11.875Z,26.69
2024-01-11T05:57:11.349Z,26.53
2024-01-11T05:58:11.333Z,26.36
2024-01-11T05:59:11.375Z,26.34
2024-01-11T06:00:11.367Z,26.31
2024-01-11T06:01:11.456Z,26.33
2024-01-11T06:02:11.294Z,26.22
2024-01-11T06:03:11.330Z,26.25
2024-01-11T06:04:11.268Z,26.21
2024-01-11T06:05:11.324Z,26.35
2024-01-11T06:06:11.414Z,26.22
2024-01-11T06:07:11.231Z,26.42
2024-01-11T06:08:11.260Z,26.26
2024-01-11T06:09:11.222Z,26.33
2024-01-11T06:10:11.201Z,26.50
2024-01-11T06:11:11.219Z,26.46
2024-01-11T06:12:11.178Z,26.15
2024-01-11T06:13:11.181Z,26.10
2024-01-11T06:14:11.218Z,26.45
2024-01-11T06:15:11.168Z,26.46
2024-01-11T06:16:13.404Z,26.49
2024-01-11T06:17:11.373Z,26.25
2024-01-11T06:18:11.429Z,26.27
2024-01-11T06:19:11.395Z,26.33
2024-01-11T06:20:11.361Z,26.46
2024-01-11T06:21:11.287Z,26.27
2024-01-11T06:22:11.300Z,26.13
2024-01-11T06:23:11.322Z,26.46
2024-01-11T06:24:11.255Z,26.41
2024-01-11T06:25:11.234Z,26.45
2024-01-11T06:26:11.255Z,26.53
2024-01-11T06:27:11.216Z,26.41
2024-01-11T06:28:11.204Z,26.69
2024-01-11T06:29:11.272Z,26.72
2024-01-11T06:30:11.210Z,26.50
2024-01-11T06:31:11.204Z,26.78
2024-01-11T06:32:11.306Z,27.16
2024-01-11T06:33:11.886Z,29.28
2024-01-11T06:34:11.228Z,29.70
2024-01-11T06:35:11.239Z,31.29
2024-01-11T06:36:11.151Z,31.54
2024-01-11T06:37:11.092Z,33.09
2024-01-11T06:38:11.100Z,33.31
2024-01-11T06:39:11.049Z,33.78
2024-01-11T06:40:11.054Z,34.32
2024-01-11T06:41:11.113Z,33.60
2024-01-11T06:42:10.999Z,34.54
2024-01-11T06:43:12.099Z,34.54
2024-01-11T06:44:11.007Z,34.40
2024-01-11T06:45:10.906Z,34.47
2024-01-11T06:46:10.895Z,34.51
2024-01-11T06:47:10.883Z,34.79
2024-01-11T06:48:11.026Z,34.75
2024-01-11T06:49:10.962Z,34.65
2024-01-11T06:50:10.860Z,34.78
2024-01-11T06:51:10.801Z,34.88
2024-01-11T06:52:10.731Z,35.22
2024-01-11T06:53:10.807Z,34.97
2024-01-11T06:54:10.790Z,34.71
2024-01-11T06:55:10.800Z,34.87
2024-01-11T06:56:10.862Z,35.10
2024-01-11T06:57:10.890Z,34.74
2024-01-11T06:58:10.922Z,34.66
2024-01-11T06:59:10.972Z,34.41
2024-01-11T07:00:10.972Z,34.60
2024-01-11T07:01:11.133Z,34.66
2024-01-11T07:02:11.057Z,34.52
2024-01-11T07:03:11.082Z,34.84
2024-01-11T07:04:11.175Z,35.18
2024-01-11T07:05:11.170Z,35.24
2024-01-11T07:06:11.225Z,35.28
2024-01-11T07:07:11.160Z,35.42
2024-01-11T07:08:11.167Z,35.16
2024-01-11T07:09:11.101Z,35.19
2024-01-11T07:10:11.039Z,35.17
2024-01-11T07:11:11.022Z,35.29
2024-01-11T07:12:10.985Z,35.57
2024-01-11T07:13:10.936Z,35.46
2024-01-11T07:14:10.935Z,35.65
2024-01-11T07:15:10.851Z,35.73
2024-01-11T07:16:12.415Z,35.33
2024-01-11T07:17:10.769Z,35.56
2024-01-11T07:18:10.782Z,35.82
2024-01-11T07:19:10.721Z,35.53
2024-01-11T07:20:10.647Z,35.39
2024-01-11T07:21:10.579Z,35.64
2024-01-11T07:22:10.536Z,35.55
2024-01-11T07:23:10.493Z,35.49
2024-01-11T07:24:10.434Z,35.47
2024-01-11T07:25:10.392Z,35.39
2024-01-11T07:26:10.382Z,35.59
2024-01-11T07:27:10.339Z,35.60
2024-01-11T07:28:10.298Z,35.47
2024-01-11T07:29:10.301Z,35.58
2024-01-11T07:30:10.238Z,35.47
2024-01-11T07:31:10.200Z,35.42
2024-01-11T07:32:10.225Z,35.62
2024-01-11T07:33:11.032Z,35.53
2024-01-11T07:34:10.077Z,35.49
2024-01-11T07:35:13.321Z,35.49
2024-01-11T07:36:11.075Z,35.36
2024-01-11T07:37:09.899Z,35.27
2024-01-11T07:38:09.938Z,35.30
2024-01-11T07:39:10.577Z,35.41
2024-01-11T07:40:09.760Z,35.19
2024-01-11T07:41:09.756Z,35.76
2024-01-11T07:42:09.719Z,35.73
2024-01-11T07:43:09.662Z,35.43
2024-01-11T07:44:09.592Z,35.14
2024-01-11T07:45:09.557Z,35.10
2024-01-11T07:46:09.511Z,34.87
2024-01-11T07:47:09.518Z,34.76
2024-01-11T07:48:09.519Z,35.16
2024-01-11T07:49:09.549Z,35.19
2024-01-11T07:50:09.455Z,35.40
2024-01-11T07:51:09.360Z,35.58
2024-01-11T07:52:09.321Z,35.53
2024-01-11T07:53:09.239Z,35.89
2024-01-11T07:54:09.154Z,36.09
2024-01-11T07:55:09.145Z,36.05
2024-01-11T07:56:09.214Z,35.97
2024-01-11T07:57:09.058Z,36.29
2024-01-11T07:58:08.994Z,36.12
2024-01-11T07:59:08.988Z,36.28
2024-01-11T08:00:08.888Z,36.35
2024-01-11T08:01:08.889Z,36.21
2024-01-11T08:02:08.910Z,36.31
2024-01-11T08:03:08.798Z,36.39
2024-01-11T08:04:08.763Z,36.47
2024-01-11T08:05:08.744Z,36.76
2024-01-11T08:06:08.848Z,36.49
2024-01-11T08:07:08.582Z,36.58
2024-01-11T08:08:08.526Z,36.79
2024-01-11T08:09:08.520Z,36.65
2024-01-11T08:10:08.389Z,36.54
2024-01-11T08:11:08.437Z,36.72
2024-01-11T08:12:08.932Z,37.00
2024-01-11T08:13:08.262Z,37.14
2024-01-11T08:14:08.248Z,37.12
2024-01-11T08:15:08.136Z,37.23
2024-01-11T08:16:08.178Z,37.29
2024-01-11T08:17:08.121Z,37.51
2024-01-11T08:18:08.068Z,37.44
2024-01-11T08:19:08.051Z,37.59
2024-01-11T08:20:07.934Z,37.55
2024-01-11T08:21:07.984Z,37.70
2024-01-11T08:22:07.827Z,37.70
2024-01-11T08:23:07.855Z,38.08
2024-01-11T08:24:07.736Z,37.90
2024-01-11T08:25:07.715Z,38.20
2024-01-11T08:26:07.799Z,37.90
2024-01-11T08:27:07.765Z,37.75
2024-01-11T08:28:07.740Z,37.66
2024-01-11T08:29:07.786Z,37.98
2024-01-11T08:30:07.803Z,37.79
2024-01-11T08:31:07.825Z,37.70
2024-01-11T08:32:19.162Z,37.45
2024-01-11T08:33:08.828Z,38.10
2024-01-11T08:34:07.868Z,38.04
2024-01-11T08:35:07.630Z,37.94
2024-01-11T08:36:08.634Z,38.24
2024-01-11T08:37:07.483Z,37.96
2024-01-11T08:38:07.497Z,37.78
2024-01-11T08:39:07.383Z,37.11
2024-01-11T08:40:07.325Z,35.21
2024-01-11T08:41:07.333Z,34.82
2024-01-11T08:42:07.278Z,34.43
2024-01-11T08:43:07.275Z,34.69
2024-01-11T08:44:07.313Z,34.60
2024-01-11T08:45:07.294Z,34.00
2024-01-11T08:46:07.314Z,34.69
2024-01-11T08:47:07.330Z,35.09
2024-01-11T08:48:07.443Z,35.22
2024-01-11T08:49:07.379Z,35.09
2024-01-11T08:50:07.628Z,34.55
2024-01-11T08:51:07.304Z,34.56
2024-01-11T08:52:07.283Z,35.01
2024-01-11T08:53:07.347Z,35.26
2024-01-11T08:54:08.259Z,35.22
2024-01-11T08:55:07.233Z,35.10
2024-01-11T08:56:07.224Z,34.64
2024-01-11T08:57:07.067Z,34.68
2024-01-11T08:58:06.982Z,35.01
2024-01-11T08:59:06.973Z,35.19
2024-01-11T09:00:06.892Z,35.24
2024-01-11T09:01:06.901Z,35.46
2024-01-11T09:02:14.328Z,34.75
2024-01-11T09:03:07.749Z,35.03
2024-01-11T09:04:06.671Z,34.75
2024-01-11T09:05:06.564Z,34.93
2024-01-11T09:06:06.613Z,35.14
2024-01-11T09:07:06.443Z,35.17
2024-01-11T09:08:06.409Z,34.72
2024-01-11T09:09:06.289Z,34.33
2024-01-11T09:10:06.294Z,34.31
2024-01-11T09:11:06.214Z,34.20
2024-01-11T09:12:06.150Z,34.35
2024-01-11T09:13:06.046Z,34.52
2024-01-11T09:14:05.995Z,34.26
2024-01-11T09:15:05.945Z,33.56
2024-01-11T09:16:05.840Z,33.54
2024-01-11T09:17:05.838Z,33.53
2024-01-11T09:18:05.991Z,33.45
2024-01-11T09:19:05.741Z,33.37
2024-01-11T09:20:05.641Z,33.67
2024-01-11T09:21:05.517Z,32.60
2024-01-11T09:22:05.461Z,32.37
2024-01-11T09:23:05.484Z,32.37
2024-01-11T09:24:05.327Z,32.26
2024-01-11T09:25:05.294Z,32.75
2024-01-11T09:26:05.255Z,32.69
2024-01-11T09:27:05.223Z,32.54
2024-01-11T09:28:05.088Z,31.76
2024-01-11T09:29:05.060Z,31.28
2024-01-11T09:30:04.980Z,31.46
2024-01-11T09:31:05.002Z,31.30
2024-01-11T09:33:41.780Z,33.59
2024-01-11T09:34:41.355Z,32.42
2024-01-11T09:35:41.273Z,32.56
2024-01-11T09:36:41.238Z,32.05
2024-01-11T09:37:41.129Z,33.74
2024-01-11T09:38:41.241Z,32.03
2024-01-11T09:39:41.049Z,31.51
2024-01-11T09:40:40.958Z,31.63
2024-01-11T09:41:40.989Z,31.51
2024-01-11T09:42:40.826Z,31.95
2024-01-11T09:43:40.844Z,31.95
2024-01-11T09:44:41.106Z,32.33
2024-01-11T09:45:40.662Z,32.06
2024-01-11T09:46:40.626Z,32.14
2024-01-11T09:47:40.635Z,31.21
2024-01-11T09:48:40.642Z,32.06
2024-01-11T09:49:40.501Z,32.02
2024-01-11T09:50:40.435Z,32.01
2024-01-11T09:51:40.305Z,32.04
2024-01-11T09:52:40.292Z,32.87
2024-01-11T09:53:40.281Z,33.35
2024-01-11T09:54:40.157Z,33.74
2024-01-11T09:55:40.095Z,33.99
2024-01-11T09:56:40.264Z,34.24
2024-01-11T09:57:39.996Z,34.37
2024-01-11T09:58:40.009Z,34.43
2024-01-11T09:59:39.927Z,34.16
2024-01-11T10:00:39.891Z,34.33
2024-01-11T10:01:39.812Z,34.85
2024-01-11T10:02:39.879Z,34.81
2024-01-11T10:03:39.798Z,35.62
2024-01-11T10:04:39.771Z,35.68
2024-01-11T10:05:39.742Z,35.40
2024-01-11T10:06:39.720Z,34.59
2024-01-11T10:07:39.710Z,34.35
2024-01-11T10:08:39.814Z,34.35
2024-01-11T10:09:39.640Z,34.67
2024-01-11T10:10:40.947Z,35.12
2024-01-11T10:11:39.662Z,34.95
2024-01-11T10:12:39.643Z,34.09
2024-01-11T10:13:39.577Z,33.79
2024-01-11T10:14:39.558Z,33.74
2024-01-11T10:15:39.516Z,33.58
2024-01-11T10:16:39.415Z,33.95
2024-01-11T10:17:39.553Z,33.89
2024-01-11T10:18:39.596Z,33.64
2024-01-11T10:19:39.493Z,32.72
2024-01-11T10:20:39.357Z,32.91
2024-01-11T10:21:39.200Z,33.38
2024-01-11T10:22:39.144Z,33.74
2024-01-11T10:23:39.139Z,33.51
2024-01-11T10:24:39.049Z,33.17
2024-01-11T10:25:38.987Z,32.59
2024-01-11T10:26:39.013Z,33.03
2024-01-11T10:27:38.899Z,32.84
2024-01-11T10:28:39.104Z,33.38
2024-01-11T10:29:38.837Z,32.88
2024-01-11T10:30:38.862Z,32.71
2024-01-11T10:31:38.725Z,32.34
2024-01-11T10:32:38.796Z,32.58
2024-01-11T10:33:38.693Z,32.96
2024-01-11T10:34:38.568Z,33.11
2024-01-11T10:35:38.599Z,32.95
2024-01-11T10:36:38.497Z,32.19
2024-01-11T10:37:38.468Z,32.42
2024-01-11T10:38:38.544Z,32.96
2024-01-11T10:39:38.400Z,33.07
2024-01-11T10:40:38.391Z,33.72
2024-01-11T10:41:38.383Z,34.35
2024-01-11T10:42:38.202Z,33.64
2024-01-11T10:43:38.274Z,33.94
2024-01-11T10:44:38.132Z,33.76
2024-01-11T10:45:38.067Z,33.09
2024-01-11T10:46:38.038Z,33.25
2024-01-11T10:47:37.989Z,32.82
2024-01-11T10:48:38.026Z,32.81
2024-01-11T10:49:37.796Z,32.66
2024-01-11T10:50:37.832Z,32.55
2024-01-11T10:51:37.769Z,32.58
2024-01-11T10:52:37.771Z,32.53
2024-01-11T10:53:37.846Z,32.49
2024-01-11T10:54:37.823Z,32.06
2024-01-11T10:55:37.745Z,32.47
2024-01-11T10:56:37.818Z,32.05
2024-01-11T10:57:37.710Z,32.45
2024-01-11T10:58:37.711Z,32.80
2024-01-11T10:59:37.752Z,32.20
2024-01-11T11:00:37.703Z,32.06
2024-01-11T11:01:37.657Z,32.57
2024-01-11T11:02:37.727Z,32.77
2024-01-11T11:03:37.661Z,33.01
2024-01-11T11:04:37.653Z,32.82
2024-01-11T11:05:37.767Z,32.42
2024-01-11T11:06:37.722Z,32.53
2024-01-11T11:07:37.554Z,32.32
2024-01-11T11:08:37.551Z,32.89
2024-01-11T11:09:37.494Z,33.22
2024-01-11T11:10:37.520Z,32.81
2024-01-11T11:11:37.488Z,32.74
2024-01-11T11:12:37.388Z,32.92
2024-01-11T11:13:37.336Z,33.04
2024-01-11T11:14:37.248Z,33.44
2024-01-11T11:15:37.153Z,33.01
2024-01-11T11:16:37.063Z,32.95
2024-01-11T11:17:37.060Z,33.00
2024-01-11T11:18:37.144Z,33.58
2024-01-11T11:19:36.869Z,33.47
2024-01-11T11:20:36.897Z,33.71
2024-01-11T11:21:36.694Z,33.07
2024-01-11T11:22:36.632Z,33.19
2024-01-11T11:23:36.531Z,33.21
2024-01-11T11:24:36.489Z,33.19
2024-01-11T11:25:36.407Z,33.74
2024-01-11T11:26:36.356Z,33.78
2024-01-11T11:27:36.225Z,32.72
2024-01-11T11:28:36.171Z,33.26
2024-01-11T11:29:36.123Z,33.52
2024-01-11T11:30:36.038Z,33.30
2024-01-11T11:31:35.946Z,33.82
2024-01-11T11:32:36.021Z,33.42
2024-01-11T11:33:36.028Z,33.51
2024-01-11T11:34:35.855Z,33.64
2024-01-11T11:35:35.829Z,33.42
2024-01-11T11:36:35.776Z,34.11
2024-01-11T11:37:35.702Z,34.04
2024-01-11T11:38:35.678Z,32.73
2024-01-11T11:39:35.545Z,33.03
2024-01-11T11:40:35.452Z,33.36
2024-01-11T11:41:35.509Z,32.66
2024-01-11T11:42:35.954Z,33.15
2024-01-11T11:43:35.259Z,33.20
2024-01-11T11:44:35.180Z,31.99
2024-01-11T11:45:35.109Z,32.32
2024-01-11T11:46:34.996Z,32.32
2024-01-11T11:47:35.031Z,32.29
2024-01-11T11:48:34.955Z,32.40
2024-01-11T11:49:34.924Z,31.68
2024-01-11T11:50:34.897Z,31.17
2024-01-11T11:51:34.823Z,31.69
2024-01-11T11:52:34.813Z,31.56
2024-01-11T11:53:34.855Z,31.31
2024-01-11T11:54:34.738Z,31.67
2024-01-11T11:55:34.659Z,30.81
2024-01-11T11:56:34.609Z,30.70
2024-01-11T11:57:34.593Z,30.73
2024-01-11T11:58:34.427Z,30.57
2024-01-11T11:59:34.381Z,30.66
2024-01-11T12:00:34.288Z,30.30
2024-01-11T12:01:34.217Z,30.24
2024-01-11T12:02:34.232Z,30.68
2024-01-11T12:03:35.268Z,30.85
2024-01-11T12:04:34.188Z,31.05
2024-01-11T12:05:34.295Z,31.21
2024-01-11T12:06:34.212Z,31.31
2024-01-11T12:07:34.144Z,31.53
2024-01-11T12:08:34.178Z,31.64
2024-01-11T12:09:34.177Z,31.77
2024-01-11T12:10:34.000Z,31.95
2024-01-11T12:11:33.988Z,31.97
2024-01-11T12:12:33.902Z,32.10
2024-01-11T12:13:33.849Z,32.22
2024-01-11T12:14:33.725Z,32.47
2024-01-11T12:15:33.642Z,32.52
2024-01-11T12:16:33.563Z,32.56
2024-01-11T12:17:33.561Z,32.67
2024-01-11T12:18:33.523Z,32.78
2024-01-11T12:19:33.414Z,32.94
2024-01-11T12:20:33.352Z,32.89
2024-01-11T12:21:33.142Z,32.87
2024-01-11T12:22:33.082Z,32.37
2024-01-11T12:23:32.986Z,32.86
2024-01-11T12:24:32.890Z,32.76
2024-01-11T12:25:32.825Z,33.03
2024-01-11T12:26:32.786Z,33.32
2024-01-11T12:27:32.689Z,32.84
2024-01-11T12:28:32.629Z,32.53
2024-01-11T12:29:36.873Z,32.12
2024-01-11T12:30:33.510Z,31.79
2024-01-11T12:31:32.466Z,31.99
2024-01-11T12:32:32.374Z,32.37
2024-01-11T12:33:32.253Z,32.31
2024-01-11T12:34:32.197Z,32.22
2024-01-11T12:35:32.054Z,31.88
2024-01-11T12:36:31.903Z,31.91
2024-01-11T12:37:31.896Z,31.41
2024-01-11T12:38:31.780Z,31.13
2024-01-11T12:39:31.703Z,31.45
2024-01-11T12:40:31.608Z,31.73
2024-01-11T12:41:31.659Z,31.57
2024-01-11T12:42:31.450Z,31.17
2024-01-11T12:43:31.375Z,31.48
2024-01-11T12:44:31.305Z,31.42
2024-01-11T12:45:31.236Z,31.40
2024-01-11T12:46:31.137Z,31.29
2024-01-11T12:47:31.198Z,30.91
2024-01-11T12:48:31.112Z,31.25
2024-01-11T12:49:31.013Z,31.21
2024-01-11T12:50:30.903Z,31.05
2024-01-11T12:51:30.806Z,31.27
2024-01-11T12:52:30.697Z,30.60
2024-01-11T12:53:30.718Z,31.00
2024-01-11T12:54:30.538Z,31.07